Aviation Digital Data Service (ADDS)

Output produced by METARs form (1330 UTC 15 August 2018)
found at http://www.aviationweather.gov/adds/metars/
 
METAR text: KGYY 151245Z 00000KT 7SM RA SCT050 SCT070 24/20 A2997 RMK RAB40
Conditions at: KGYY (GARY REGIONAL , IN, US) observed 1245 UTC 15 August 2018
Temperature: 24.0°C (75°F)
Dewpoint: 20.0°C (68°F) [RH = 78%]
Pressure (altimeter): 29.97 inches Hg (1015.0 mb)
Winds: calm
Visibility: 7 miles (11 km)
Ceiling: at least 12,000 feet AGL
Clouds: scattered clouds at 5000 feet AGL
scattered clouds at 7000 feet AGL
Weather: RA  (rain)

METAR text: KGYY 151145Z 14006KT 10SM OVC070 23/20 A2998
Conditions at: KGYY (GARY REGIONAL , IN, US) observed 1145 UTC 15 August 2018
Temperature: 23.0°C (73°F)
Dewpoint: 20.0°C (68°F) [RH = 83%]
Pressure (altimeter): 29.98 inches Hg (1015.3 mb)
Winds: from the SE (140 degrees) at 7 MPH (6 knots; 3.1 m/s)
Visibility: 10 or more miles (16+ km)
Ceiling: 7000 feet AGL
Clouds: overcast cloud deck at 7000 feet AGL
Weather: no significant weather observed at this time

METAR text: KGYY 151045Z 15004KT 10SM OVC070 22/20 A2997
Conditions at: KGYY (GARY REGIONAL , IN, US) observed 1045 UTC 15 August 2018
Temperature: 22.0°C (72°F)
Dewpoint: 20.0°C (68°F) [RH = 88%]
Pressure (altimeter): 29.97 inches Hg (1015.0 mb)
Winds: from the SSE (150 degrees) at 5 MPH (4 knots; 2.1 m/s)
Visibility: 10 or more miles (16+ km)
Ceiling: 7000 feet AGL
Clouds: overcast cloud deck at 7000 feet AGL
Weather: no significant weather observed at this time

METAR text: KGYY 150945Z 14004KT 10SM SKC 22/20 A2997
Conditions at: KGYY (GARY REGIONAL , IN, US) observed 0945 UTC 15 August 2018
Temperature: 22.0°C (72°F)
Dewpoint: 20.0°C (68°F) [RH = 88%]
Pressure (altimeter): 29.97 inches Hg (1015.0 mb)
Winds: from the SE (140 degrees) at 5 MPH (4 knots; 2.1 m/s)
Visibility: 10 or more miles (16+ km)
Ceiling: at least 12,000 feet AGL
Clouds: clear skies
Weather: no significant weather observed at this time

METAR text: KGYY 150915Z AUTO 00000KT 10SM CLR 21/20 A2997 RMK AO2 T02100195
Conditions at: KGYY (GARY REGIONAL , IN, US) observed 0915 UTC 15 August 2018
Temperature: 21.0°C (70°F)
Dewpoint: 19.5°C (67°F) [RH = 91%]
Pressure (altimeter): 29.97 inches Hg (1015.0 mb)
Winds: calm
Visibility: 10 or more miles (16+ km)
Ceiling: at least 12,000 feet AGL
Clouds: sky clear below 12,000 feet AGL
Weather: automated observation with no human augmentation;
there may or may not be significant weather present at this time

METAR text: KGYY 150855Z AUTO 00000KT 10SM CLR 21/20 A2997 RMK AO2 T02140197
Conditions at: KGYY (GARY REGIONAL , IN, US) observed 0855 UTC 15 August 2018
Temperature: 21.4°C (71°F)
Dewpoint: 19.7°C (67°F) [RH = 90%]
Pressure (altimeter): 29.97 inches Hg (1015.0 mb)
Winds: calm
Visibility: 10 or more miles (16+ km)
Ceiling: at least 12,000 feet AGL
Clouds: sky clear below 12,000 feet AGL
Weather: automated observation with no human augmentation;
there may or may not be significant weather present at this time

METAR text: KGYY 150835Z AUTO 00000KT 10SM CLR 21/19 A2997 RMK AO2 T02130193
Conditions at: KGYY (GARY REGIONAL , IN, US) observed 0835 UTC 15 August 2018
Temperature: 21.3°C (70°F)
Dewpoint: 19.3°C (67°F) [RH = 88%]
Pressure (altimeter): 29.97 inches Hg (1015.0 mb)
Winds: calm
Visibility: 10 or more miles (16+ km)
Ceiling: at least 12,000 feet AGL
Clouds: sky clear below 12,000 feet AGL
Weather: automated observation with no human augmentation;
there may or may not be significant weather present at this time

METAR text: KGYY 150815Z AUTO 00000KT 10SM CLR 23/19 A2997 RMK AO2 T02250194
Conditions at: KGYY (GARY REGIONAL , IN, US) observed 0815 UTC 15 August 2018
Temperature: 22.5°C (72°F)
Dewpoint: 19.4°C (67°F) [RH = 83%]
Pressure (altimeter): 29.97 inches Hg (1015.0 mb)
Winds: calm
Visibility: 10 or more miles (16+ km)
Ceiling: at least 12,000 feet AGL
Clouds: sky clear below 12,000 feet AGL
Weather: automated observation with no human augmentation;
there may or may not be significant weather present at this time

METAR text: KGYY 150755Z AUTO 00000KT 10SM CLR 22/20 A2996 RMK AO2 T02180195
Conditions at: KGYY (GARY REGIONAL , IN, US) observed 0755 UTC 15 August 2018
Temperature: 21.8°C (71°F)
Dewpoint: 19.5°C (67°F) [RH = 87%]
Pressure (altimeter): 29.96 inches Hg (1014.6 mb)
Winds: calm
Visibility: 10 or more miles (16+ km)
Ceiling: at least 12,000 feet AGL
Clouds: sky clear below 12,000 feet AGL
Weather: automated observation with no human augmentation;
there may or may not be significant weather present at this time

METAR text: KGYY 150735Z AUTO 00000KT 10SM CLR 21/20 A2995 RMK AO2 T02130196
Conditions at: KGYY (GARY REGIONAL , IN, US) observed 0735 UTC 15 August 2018
Temperature: 21.3°C (70°F)
Dewpoint: 19.6°C (67°F) [RH = 90%]
Pressure (altimeter): 29.95 inches Hg (1014.3 mb)
Winds: calm
Visibility: 10 or more miles (16+ km)
Ceiling: at least 12,000 feet AGL
Clouds: sky clear below 12,000 feet AGL
Weather: automated observation with no human augmentation;
there may or may not be significant weather present at this time

METAR text: KGYY 150715Z AUTO 00000KT 10SM CLR 22/19 A2995 RMK AO2 T02160191
Conditions at: KGYY (GARY REGIONAL , IN, US) observed 0715 UTC 15 August 2018
Temperature: 21.6°C (71°F)
Dewpoint: 19.1°C (66°F) [RH = 86%]
Pressure (altimeter): 29.95 inches Hg (1014.3 mb)
Winds: calm
Visibility: 10 or more miles (16+ km)
Ceiling: at least 12,000 feet AGL
Clouds: sky clear below 12,000 feet AGL
Weather: automated observation with no human augmentation;
there may or may not be significant weather present at this time

METAR text: KGYY 150655Z AUTO 00000KT 10SM CLR 22/19 A2994 RMK AO2 T02230190
Conditions at: KGYY (GARY REGIONAL , IN, US) observed 0655 UTC 15 August 2018
Temperature: 22.3°C (72°F)
Dewpoint: 19.0°C (66°F) [RH = 82%]
Pressure (altimeter): 29.94 inches Hg (1014.0 mb)
Winds: calm
Visibility: 10 or more miles (16+ km)
Ceiling: at least 12,000 feet AGL
Clouds: sky clear below 12,000 feet AGL
Weather: automated observation with no human augmentation;
there may or may not be significant weather present at this time

METAR text: KGYY 150635Z AUTO 00000KT 10SM CLR 23/19 A2995 RMK AO2 T02260188
Conditions at: KGYY (GARY REGIONAL , IN, US) observed 0635 UTC 15 August 2018
Temperature: 22.6°C (73°F)
Dewpoint: 18.8°C (66°F) [RH = 79%]
Pressure (altimeter): 29.95 inches Hg (1014.3 mb)
Winds: calm
Visibility: 10 or more miles (16+ km)
Ceiling: at least 12,000 feet AGL
Clouds: sky clear below 12,000 feet AGL
Weather: automated observation with no human augmentation;
there may or may not be significant weather present at this time

METAR text: KGYY 150615Z AUTO 00000KT 10SM CLR 23/19 A2995 RMK AO2 T02290186
Conditions at: KGYY (GARY REGIONAL , IN, US) observed 0615 UTC 15 August 2018
Temperature: 22.9°C (73°F)
Dewpoint: 18.6°C (65°F) [RH = 77%]
Pressure (altimeter): 29.95 inches Hg (1014.3 mb)
Winds: calm
Visibility: 10 or more miles (16+ km)
Ceiling: at least 12,000 feet AGL
Clouds: sky clear below 12,000 feet AGL
Weather: automated observation with no human augmentation;
there may or may not be significant weather present at this time

METAR text: KGYY 150555Z AUTO 00000KT 10SM CLR 23/19 A2995 RMK AO2 T02310187 10287 20207 403150167
Conditions at: KGYY (GARY REGIONAL , IN, US) observed 0555 UTC 15 August 2018
Temperature: 23.1°C (74°F)
Dewpoint: 18.7°C (66°F) [RH = 76%]
Pressure (altimeter): 29.95 inches Hg (1014.3 mb)
Winds: calm
Visibility: 10 or more miles (16+ km)
Ceiling: at least 12,000 feet AGL
Clouds: sky clear below 12,000 feet AGL
Weather: automated observation with no human augmentation;
there may or may not be significant weather present at this time

METAR text: KGYY 150535Z AUTO 00000KT 10SM CLR 22/19 A2996 RMK AO2 T02200193
Conditions at: KGYY (GARY REGIONAL , IN, US) observed 0535 UTC 15 August 2018
Temperature: 22.0°C (72°F)
Dewpoint: 19.3°C (67°F) [RH = 85%]
Pressure (altimeter): 29.96 inches Hg (1014.6 mb)
Winds: calm
Visibility: 10 or more miles (16+ km)
Ceiling: at least 12,000 feet AGL
Clouds: sky clear below 12,000 feet AGL
Weather: automated observation with no human augmentation;
there may or may not be significant weather present at this time

METAR text: KGYY 150515Z AUTO 00000KT 10SM CLR 22/19 A2996 RMK AO2 T02150189
Conditions at: KGYY (GARY REGIONAL , IN, US) observed 0515 UTC 15 August 2018
Temperature: 21.5°C (71°F)
Dewpoint: 18.9°C (66°F) [RH = 85%]
Pressure (altimeter): 29.96 inches Hg (1014.6 mb)
Winds: calm
Visibility: 10 or more miles (16+ km)
Ceiling: at least 12,000 feet AGL
Clouds: sky clear below 12,000 feet AGL
Weather: automated observation with no human augmentation;
there may or may not be significant weather present at this time

METAR text: KGYY 150455Z AUTO 00000KT 10SM CLR 21/19 A2996 RMK AO2 T02110191
Conditions at: KGYY (GARY REGIONAL , IN, US) observed 0455 UTC 15 August 2018
Temperature: 21.1°C (70°F)
Dewpoint: 19.1°C (66°F) [RH = 88%]
Pressure (altimeter): 29.96 inches Hg (1014.6 mb)
Winds: calm
Visibility: 10 or more miles (16+ km)
Ceiling: at least 12,000 feet AGL
Clouds: sky clear below 12,000 feet AGL
Weather: automated observation with no human augmentation;
there may or may not be significant weather present at this time

METAR text: KGYY 150435Z AUTO 00000KT 10SM CLR 21/19 A2997 RMK AO2 T02100191
Conditions at: KGYY (GARY REGIONAL , IN, US) observed 0435 UTC 15 August 2018
Temperature: 21.0°C (70°F)
Dewpoint: 19.1°C (66°F) [RH = 89%]
Pressure (altimeter): 29.97 inches Hg (1015.0 mb)
Winds: calm
Visibility: 10 or more miles (16+ km)
Ceiling: at least 12,000 feet AGL
Clouds: sky clear below 12,000 feet AGL
Weather: automated observation with no human augmentation;
there may or may not be significant weather present at this time

METAR text: KGYY 150415Z AUTO 00000KT 10SM CLR 22/19 A2997 RMK AO2 T02150194
Conditions at: KGYY (GARY REGIONAL , IN, US) observed 0415 UTC 15 August 2018
Temperature: 21.5°C (71°F)
Dewpoint: 19.4°C (67°F) [RH = 88%]
Pressure (altimeter): 29.97 inches Hg (1015.0 mb)
Winds: calm
Visibility: 10 or more miles (16+ km)
Ceiling: at least 12,000 feet AGL
Clouds: sky clear below 12,000 feet AGL
Weather: automated observation with no human augmentation;
there may or may not be significant weather present at this time

METAR text: KGYY 150355Z AUTO 00000KT 10SM CLR 23/19 A2997 RMK AO2 T02280190
Conditions at: KGYY (GARY REGIONAL , IN, US) observed 0355 UTC 15 August 2018
Temperature: 22.8°C (73°F)
Dewpoint: 19.0°C (66°F) [RH = 79%]
Pressure (altimeter): 29.97 inches Hg (1015.0 mb)
Winds: calm
Visibility: 10 or more miles (16+ km)
Ceiling: at least 12,000 feet AGL
Clouds: sky clear below 12,000 feet AGL
Weather: automated observation with no human augmentation;
there may or may not be significant weather present at this time

METAR text: KGYY 150335Z AUTO 00000KT 10SM CLR 23/19 A2997 RMK AO2 T02270194
Conditions at: KGYY (GARY REGIONAL , IN, US) observed 0335 UTC 15 August 2018
Temperature: 22.7°C (73°F)
Dewpoint: 19.4°C (67°F) [RH = 82%]
Pressure (altimeter): 29.97 inches Hg (1015.0 mb)
Winds: calm
Visibility: 10 or more miles (16+ km)
Ceiling: at least 12,000 feet AGL
Clouds: sky clear below 12,000 feet AGL
Weather: automated observation with no human augmentation;
there may or may not be significant weather present at this time

METAR text: KGYY 150315Z AUTO 00000KT 10SM CLR 25/18 A2998 RMK AO2 T02470184
Conditions at: KGYY (GARY REGIONAL , IN, US) observed 0315 UTC 15 August 2018
Temperature: 24.7°C (76°F)
Dewpoint: 18.4°C (65°F) [RH = 68%]
Pressure (altimeter): 29.98 inches Hg (1015.3 mb)
Winds: calm
Visibility: 10 or more miles (16+ km)
Ceiling: at least 12,000 feet AGL
Clouds: sky clear below 12,000 feet AGL
Weather: automated observation with no human augmentation;
there may or may not be significant weather present at this time

METAR text: KGYY 150245Z 18003KT 10SM BKN250 26/17 A2998
Conditions at: KGYY (GARY REGIONAL , IN, US) observed 0245 UTC 15 August 2018
Temperature: 26.0°C (79°F)
Dewpoint: 17.0°C (63°F) [RH = 58%]
Pressure (altimeter): 29.98 inches Hg (1015.3 mb)
Winds: from the S (180 degrees) at 3 MPH (3 knots; 1.6 m/s)
Visibility: 10 or more miles (16+ km)
Ceiling: 25000 feet AGL
Clouds: broken clouds at 25000 feet AGL
Weather: no significant weather observed at this time

METAR text: KGYY 150145Z 19003KT 10SM BKN250 27/17 A2996
Conditions at: KGYY (GARY REGIONAL , IN, US) observed 0145 UTC 15 August 2018
Temperature: 27.0°C (81°F)
Dewpoint: 17.0°C (63°F) [RH = 54%]
Pressure (altimeter): 29.96 inches Hg (1014.6 mb)
Winds: from the S (190 degrees) at 3 MPH (3 knots; 1.6 m/s)
Visibility: 10 or more miles (16+ km)
Ceiling: 25000 feet AGL
Clouds: broken clouds at 25000 feet AGL
Weather: no significant weather observed at this time

METAR text: KGYY 150045Z 18004KT 10SM BKN250 28/16 A2995
Conditions at: KGYY (GARY REGIONAL , IN, US) observed 0045 UTC 15 August 2018
Temperature: 28.0°C (82°F)
Dewpoint: 16.0°C (61°F) [RH = 48%]
Pressure (altimeter): 29.95 inches Hg (1014.3 mb)
Winds: from the S (180 degrees) at 5 MPH (4 knots; 2.1 m/s)
Visibility: 10 or more miles (16+ km)
Ceiling: 25000 feet AGL
Clouds: broken clouds at 25000 feet AGL
Weather: no significant weather observed at this time

METAR text: KGYY 142345Z VRB03KT 10SM FEW120 BKN250 29/16 A2995
Conditions at: KGYY (GARY REGIONAL , IN, US) observed 2345 UTC 14 August 2018
Temperature: 29.0°C (84°F)
Dewpoint: 16.0°C (61°F) [RH = 45%]
Pressure (altimeter): 29.95 inches Hg (1014.3 mb)
Winds: variable direction winds at 3 MPH (3 knots; 1.6 m/s)
Visibility: 10 or more miles (16+ km)
Ceiling: 25000 feet AGL
Clouds: few clouds at 12000 feet AGL
broken clouds at 25000 feet AGL
Weather: no significant weather observed at this time

METAR text: KGYY 142245Z VRB06KT 10SM SCT055 OVC250 30/15 A2996
Conditions at: KGYY (GARY REGIONAL , IN, US) observed 2245 UTC 14 August 2018
Temperature: 30.0°C (86°F)
Dewpoint: 15.0°C (59°F) [RH = 40%]
Pressure (altimeter): 29.96 inches Hg (1014.6 mb)
Winds: variable direction winds at 7 MPH (6 knots; 3.1 m/s)
Visibility: 10 or more miles (16+ km)
Ceiling: 25000 feet AGL
Clouds: scattered clouds at 5500 feet AGL
overcast cloud deck at 25000 feet AGL
Weather: no significant weather observed at this time

METAR text: KGYY 142145Z VRB04KT 10SM SCT055 BKN250 31/16 A2995
Conditions at: KGYY (GARY REGIONAL , IN, US) observed 2145 UTC 14 August 2018
Temperature: 31.0°C (88°F)
Dewpoint: 16.0°C (61°F) [RH = 40%]
Pressure (altimeter): 29.95 inches Hg (1014.3 mb)
Winds: variable direction winds at 5 MPH (4 knots; 2.1 m/s)
Visibility: 10 or more miles (16+ km)
Ceiling: 25000 feet AGL
Clouds: scattered clouds at 5500 feet AGL
broken clouds at 25000 feet AGL
Weather: no significant weather observed at this time

METAR text: KGYY 142045Z 18004KT 10SM SCT060 BKN250 30/15 A2997
Conditions at: KGYY (GARY REGIONAL , IN, US) observed 2045 UTC 14 August 2018
Temperature: 30.0°C (86°F)
Dewpoint: 15.0°C (59°F) [RH = 40%]
Pressure (altimeter): 29.97 inches Hg (1015.0 mb)
Winds: from the S (180 degrees) at 5 MPH (4 knots; 2.1 m/s)
Visibility: 10 or more miles (16+ km)
Ceiling: 25000 feet AGL
Clouds: scattered clouds at 6000 feet AGL
broken clouds at 25000 feet AGL
Weather: no significant weather observed at this time

METAR text: KGYY 141945Z 23007KT 10SM SCT060 BKN250 30/15 A2998
Conditions at: KGYY (GARY REGIONAL , IN, US) observed 1945 UTC 14 August 2018
Temperature: 30.0°C (86°F)
Dewpoint: 15.0°C (59°F) [RH = 40%]
Pressure (altimeter): 29.98 inches Hg (1015.3 mb)
Winds: from the SW (230 degrees) at 8 MPH (7 knots; 3.6 m/s)
Visibility: 10 or more miles (16+ km)
Ceiling: 25000 feet AGL
Clouds: scattered clouds at 6000 feet AGL
broken clouds at 25000 feet AGL
Weather: no significant weather observed at this time

METAR text: KGYY 141845Z 23004KT 10SM SCT050 31/14 A3000
Conditions at: KGYY (GARY REGIONAL , IN, US) observed 1845 UTC 14 August 2018
Temperature: 31.0°C (88°F)
Dewpoint: 14.0°C (57°F) [RH = 36%]
Pressure (altimeter): 30.00 inches Hg (1016.0 mb)
Winds: from the SW (230 degrees) at 5 MPH (4 knots; 2.1 m/s)
Visibility: 10 or more miles (16+ km)
Ceiling: at least 12,000 feet AGL
Clouds: scattered clouds at 5000 feet AGL
Weather: no significant weather observed at this time

METAR text: KGYY 141745Z 23005KT 10SM SCT050 30/14 A3000
Conditions at: KGYY (GARY REGIONAL , IN, US) observed 1745 UTC 14 August 2018
Temperature: 30.0°C (86°F)
Dewpoint: 14.0°C (57°F) [RH = 38%]
Pressure (altimeter): 30.00 inches Hg (1016.0 mb)
Winds: from the SW (230 degrees) at 6 MPH (5 knots; 2.6 m/s)
Visibility: 10 or more miles (16+ km)
Ceiling: at least 12,000 feet AGL
Clouds: scattered clouds at 5000 feet AGL
Weather: no significant weather observed at this time

METAR text: KGYY 141645Z 00000KT 10SM FEW050 30/12 A3001
Conditions at: KGYY (GARY REGIONAL , IN, US) observed 1645 UTC 14 August 2018
Temperature: 30.0°C (86°F)
Dewpoint: 12.0°C (54°F) [RH = 33%]
Pressure (altimeter): 30.01 inches Hg (1016.3 mb)
Winds: calm
Visibility: 10 or more miles (16+ km)
Ceiling: at least 12,000 feet AGL
Clouds: few clouds at 5000 feet AGL
Weather: no significant weather observed at this time

METAR text: KGYY 141545Z 00000KT 10SM FEW050 29/16 A3002
Conditions at: KGYY (GARY REGIONAL , IN, US) observed 1545 UTC 14 August 2018
Temperature: 29.0°C (84°F)
Dewpoint: 16.0°C (61°F) [RH = 45%]
Pressure (altimeter): 30.02 inches Hg (1016.7 mb)
Winds: calm
Visibility: 10 or more miles (16+ km)
Ceiling: at least 12,000 feet AGL
Clouds: few clouds at 5000 feet AGL
Weather: no significant weather observed at this time

METAR text: KGYY 141445Z 23004KT 10SM SKC 28/18 A3002
Conditions at: KGYY (GARY REGIONAL , IN, US) observed 1445 UTC 14 August 2018
Temperature: 28.0°C (82°F)
Dewpoint: 18.0°C (64°F) [RH = 55%]
Pressure (altimeter): 30.02 inches Hg (1016.7 mb)
Winds: from the SW (230 degrees) at 5 MPH (4 knots; 2.1 m/s)
Visibility: 10 or more miles (16+ km)
Ceiling: at least 12,000 feet AGL
Clouds: clear skies
Weather: no significant weather observed at this time

METAR text: KGYY 141345Z 00000KT 10SM SKC 25/19 A3002
Conditions at: KGYY (GARY REGIONAL , IN, US) observed 1345 UTC 14 August 2018
Temperature: 25.0°C (77°F)
Dewpoint: 19.0°C (66°F) [RH = 69%]
Pressure (altimeter): 30.02 inches Hg (1016.7 mb)
Winds: calm
Visibility: 10 or more miles (16+ km)
Ceiling: at least 12,000 feet AGL
Clouds: clear skies
Weather: no significant weather observed at this time

METAR text: KGYY 141245Z 00000KT 10SM SKC 22/19 A3002
Conditions at: KGYY (GARY REGIONAL , IN, US) observed 1245 UTC 14 August 2018
Temperature: 22.0°C (72°F)
Dewpoint: 19.0°C (66°F) [RH = 83%]
Pressure (altimeter): 30.02 inches Hg (1016.7 mb)
Winds: calm
Visibility: 10 or more miles (16+ km)
Ceiling: at least 12,000 feet AGL
Clouds: clear skies
Weather: no significant weather observed at this time

METAR text: KGYY 141145Z 00000KT 10SM SKC 20/18 A3002
Conditions at: KGYY (GARY REGIONAL , IN, US) observed 1145 UTC 14 August 2018
Temperature: 20.0°C (68°F)
Dewpoint: 18.0°C (64°F) [RH = 88%]
Pressure (altimeter): 30.02 inches Hg (1016.7 mb)
Winds: calm
Visibility: 10 or more miles (16+ km)
Ceiling: at least 12,000 feet AGL
Clouds: clear skies
Weather: no significant weather observed at this time

METAR text: KGYY 141045Z 00000KT 10SM SKC 18/17 A3001
Conditions at: KGYY (GARY REGIONAL , IN, US) observed 1045 UTC 14 August 2018
Temperature: 18.0°C (64°F)
Dewpoint: 17.0°C (63°F) [RH = 94%]
Pressure (altimeter): 30.01 inches Hg (1016.3 mb)
Winds: calm
Visibility: 10 or more miles (16+ km)
Ceiling: at least 12,000 feet AGL
Clouds: clear skies
Weather: no significant weather observed at this time

METAR text: KGYY 140945Z 00000KT 10SM SKC 17/17 A3000
Conditions at: KGYY (GARY REGIONAL , IN, US) observed 0945 UTC 14 August 2018
Temperature: 17.0°C (63°F)
Dewpoint: 17.0°C (63°F) [RH = 100%]
Pressure (altimeter): 30.00 inches Hg (1016.0 mb)
Winds: calm
Visibility: 10 or more miles (16+ km)
Ceiling: at least 12,000 feet AGL
Clouds: clear skies
Weather: no significant weather observed at this time

METAR text: KGYY 140915Z AUTO 00000KT 5SM BR CLR 18/17 A3000 RMK AO2 T01770173
Conditions at: KGYY (GARY REGIONAL , IN, US) observed 0915 UTC 14 August 2018
Temperature: 17.7°C (64°F)
Dewpoint: 17.3°C (63°F) [RH = 98%]
Pressure (altimeter): 30.00 inches Hg (1016.0 mb)
Winds: calm
Visibility: 5 miles (8 km)
Ceiling: at least 12,000 feet AGL
Clouds: sky clear below 12,000 feet AGL
Weather: BR  (mist)

METAR text: KGYY 140855Z AUTO 00000KT 5SM BR CLR 17/16 A3000 RMK AO2 T01710163
Conditions at: KGYY (GARY REGIONAL , IN, US) observed 0855 UTC 14 August 2018
Temperature: 17.1°C (63°F)
Dewpoint: 16.3°C (61°F) [RH = 95%]
Pressure (altimeter): 30.00 inches Hg (1016.0 mb)
Winds: calm
Visibility: 5 miles (8 km)
Ceiling: at least 12,000 feet AGL
Clouds: sky clear below 12,000 feet AGL
Weather: BR  (mist)

METAR text: KGYY 140835Z AUTO 00000KT 7SM CLR 17/16 A3000 RMK AO2 T01710163
Conditions at: KGYY (GARY REGIONAL , IN, US) observed 0835 UTC 14 August 2018
Temperature: 17.1°C (63°F)
Dewpoint: 16.3°C (61°F) [RH = 95%]
Pressure (altimeter): 30.00 inches Hg (1016.0 mb)
Winds: calm
Visibility: 7 miles (11 km)
Ceiling: at least 12,000 feet AGL
Clouds: sky clear below 12,000 feet AGL
Weather: automated observation with no human augmentation;
there may or may not be significant weather present at this time

METAR text: KGYY 140815Z AUTO 00000KT 5SM BR CLR 17/17 A3000 RMK AO2 T01730166
Conditions at: KGYY (GARY REGIONAL , IN, US) observed 0815 UTC 14 August 2018
Temperature: 17.3°C (63°F)
Dewpoint: 16.6°C (62°F) [RH = 96%]
Pressure (altimeter): 30.00 inches Hg (1016.0 mb)
Winds: calm
Visibility: 5 miles (8 km)
Ceiling: at least 12,000 feet AGL
Clouds: sky clear below 12,000 feet AGL
Weather: BR  (mist)

METAR text: KGYY 140755Z AUTO 00000KT 7SM CLR 18/18 A3000 RMK AO2 T01790175
Conditions at: KGYY (GARY REGIONAL , IN, US) observed 0755 UTC 14 August 2018
Temperature: 17.9°C (64°F)
Dewpoint: 17.5°C (64°F) [RH = 98%]
Pressure (altimeter): 30.00 inches Hg (1016.0 mb)
Winds: calm
Visibility: 7 miles (11 km)
Ceiling: at least 12,000 feet AGL
Clouds: sky clear below 12,000 feet AGL
Weather: automated observation with no human augmentation;
there may or may not be significant weather present at this time

METAR text: KGYY 140735Z AUTO 00000KT 7SM CLR 18/17 A3000 RMK AO2 T01780171
Conditions at: KGYY (GARY REGIONAL , IN, US) observed 0735 UTC 14 August 2018
Temperature: 17.8°C (64°F)
Dewpoint: 17.1°C (63°F) [RH = 96%]
Pressure (altimeter): 30.00 inches Hg (1016.0 mb)
Winds: calm
Visibility: 7 miles (11 km)
Ceiling: at least 12,000 feet AGL
Clouds: sky clear below 12,000 feet AGL
Weather: automated observation with no human augmentation;
there may or may not be significant weather present at this time

METAR text: KGYY 140715Z AUTO 00000KT 7SM CLR 18/17 A3001 RMK AO2 T01790173
Conditions at: KGYY (GARY REGIONAL , IN, US) observed 0715 UTC 14 August 2018
Temperature: 17.9°C (64°F)
Dewpoint: 17.3°C (63°F) [RH = 96%]
Pressure (altimeter): 30.01 inches Hg (1016.3 mb)
Winds: calm
Visibility: 7 miles (11 km)
Ceiling: at least 12,000 feet AGL
Clouds: sky clear below 12,000 feet AGL
Weather: automated observation with no human augmentation;
there may or may not be significant weather present at this time

METAR text: KGYY 140655Z AUTO 00000KT 10SM CLR 18/18 A3002 RMK AO2 T01810175
Conditions at: KGYY (GARY REGIONAL , IN, US) observed 0655 UTC 14 August 2018
Temperature: 18.1°C (65°F)
Dewpoint: 17.5°C (64°F) [RH = 96%]
Pressure (altimeter): 30.02 inches Hg (1016.7 mb)
Winds: calm
Visibility: 10 or more miles (16+ km)
Ceiling: at least 12,000 feet AGL
Clouds: sky clear below 12,000 feet AGL
Weather: automated observation with no human augmentation;
there may or may not be significant weather present at this time

METAR text: KGYY 140635Z AUTO 00000KT 10SM CLR 18/17 A3002 RMK AO2 T01810172
Conditions at: KGYY (GARY REGIONAL , IN, US) observed 0635 UTC 14 August 2018
Temperature: 18.1°C (65°F)
Dewpoint: 17.2°C (63°F) [RH = 94%]
Pressure (altimeter): 30.02 inches Hg (1016.7 mb)
Winds: calm
Visibility: 10 or more miles (16+ km)
Ceiling: at least 12,000 feet AGL
Clouds: sky clear below 12,000 feet AGL
Weather: automated observation with no human augmentation;
there may or may not be significant weather present at this time

METAR text: KGYY 140615Z AUTO 00000KT 10SM CLR 19/18 A3002 RMK AO2 T01850176
Conditions at: KGYY (GARY REGIONAL , IN, US) observed 0615 UTC 14 August 2018
Temperature: 18.5°C (65°F)
Dewpoint: 17.6°C (64°F) [RH = 95%]
Pressure (altimeter): 30.02 inches Hg (1016.7 mb)
Winds: calm
Visibility: 10 or more miles (16+ km)
Ceiling: at least 12,000 feet AGL
Clouds: sky clear below 12,000 feet AGL
Weather: automated observation with no human augmentation;
there may or may not be significant weather present at this time

METAR text: KGYY 140555Z AUTO 00000KT 10SM CLR 18/18 A3003 RMK AO2 T01840175 10270 20182 402990171
Conditions at: KGYY (GARY REGIONAL , IN, US) observed 0555 UTC 14 August 2018
Temperature: 18.4°C (65°F)
Dewpoint: 17.5°C (64°F) [RH = 94%]
Pressure (altimeter): 30.03 inches Hg (1017.0 mb)
Winds: calm
Visibility: 10 or more miles (16+ km)
Ceiling: at least 12,000 feet AGL
Clouds: sky clear below 12,000 feet AGL
Weather: automated observation with no human augmentation;
there may or may not be significant weather present at this time

METAR text: KGYY 140535Z AUTO 00000KT 10SM CLR 18/18 A3003 RMK AO2 T01830176
Conditions at: KGYY (GARY REGIONAL , IN, US) observed 0535 UTC 14 August 2018
Temperature: 18.3°C (65°F)
Dewpoint: 17.6°C (64°F) [RH = 96%]
Pressure (altimeter): 30.03 inches Hg (1017.0 mb)
Winds: calm
Visibility: 10 or more miles (16+ km)
Ceiling: at least 12,000 feet AGL
Clouds: sky clear below 12,000 feet AGL
Weather: automated observation with no human augmentation;
there may or may not be significant weather present at this time

METAR text: KGYY 140515Z AUTO 00000KT 10SM CLR 19/18 A3003 RMK AO2 T01850177
Conditions at: KGYY (GARY REGIONAL , IN, US) observed 0515 UTC 14 August 2018
Temperature: 18.5°C (65°F)
Dewpoint: 17.7°C (64°F) [RH = 95%]
Pressure (altimeter): 30.03 inches Hg (1017.0 mb)
Winds: calm
Visibility: 10 or more miles (16+ km)
Ceiling: at least 12,000 feet AGL
Clouds: sky clear below 12,000 feet AGL
Weather: automated observation with no human augmentation;
there may or may not be significant weather present at this time

METAR text: KGYY 140455Z AUTO 00000KT 10SM CLR 19/18 A3003 RMK AO2 T01880178
Conditions at: KGYY (GARY REGIONAL , IN, US) observed 0455 UTC 14 August 2018
Temperature: 18.8°C (66°F)
Dewpoint: 17.8°C (64°F) [RH = 94%]
Pressure (altimeter): 30.03 inches Hg (1017.0 mb)
Winds: calm
Visibility: 10 or more miles (16+ km)
Ceiling: at least 12,000 feet AGL
Clouds: sky clear below 12,000 feet AGL
Weather: automated observation with no human augmentation;
there may or may not be significant weather present at this time

METAR text: KGYY 140435Z AUTO 00000KT 10SM CLR 19/18 A3004 RMK AO2 T01920182
Conditions at: KGYY (GARY REGIONAL , IN, US) observed 0435 UTC 14 August 2018
Temperature: 19.2°C (67°F)
Dewpoint: 18.2°C (65°F) [RH = 94%]
Pressure (altimeter): 30.04 inches Hg (1017.4 mb)
Winds: calm
Visibility: 10 or more miles (16+ km)
Ceiling: at least 12,000 feet AGL
Clouds: sky clear below 12,000 feet AGL
Weather: automated observation with no human augmentation;
there may or may not be significant weather present at this time

METAR text: KGYY 140415Z AUTO 00000KT 10SM CLR 19/18 A3004 RMK AO2 T01940182
Conditions at: KGYY (GARY REGIONAL , IN, US) observed 0415 UTC 14 August 2018
Temperature: 19.4°C (67°F)
Dewpoint: 18.2°C (65°F) [RH = 93%]
Pressure (altimeter): 30.04 inches Hg (1017.4 mb)
Winds: calm
Visibility: 10 or more miles (16+ km)
Ceiling: at least 12,000 feet AGL
Clouds: sky clear below 12,000 feet AGL
Weather: automated observation with no human augmentation;
there may or may not be significant weather present at this time

METAR text: KGYY 140355Z AUTO 00000KT 10SM CLR 19/18 A3004 RMK AO2 T01920180
Conditions at: KGYY (GARY REGIONAL , IN, US) observed 0355 UTC 14 August 2018
Temperature: 19.2°C (67°F)
Dewpoint: 18.0°C (64°F) [RH = 93%]
Pressure (altimeter): 30.04 inches Hg (1017.4 mb)
Winds: calm
Visibility: 10 or more miles (16+ km)
Ceiling: at least 12,000 feet AGL
Clouds: sky clear below 12,000 feet AGL
Weather: automated observation with no human augmentation;
there may or may not be significant weather present at this time

METAR text: KGYY 140335Z AUTO 00000KT 10SM CLR 20/18 A3004 RMK AO2 T01950181
Conditions at: KGYY (GARY REGIONAL , IN, US) observed 0335 UTC 14 August 2018
Temperature: 19.5°C (67°F)
Dewpoint: 18.1°C (65°F) [RH = 92%]
Pressure (altimeter): 30.04 inches Hg (1017.4 mb)
Winds: calm
Visibility: 10 or more miles (16+ km)
Ceiling: at least 12,000 feet AGL
Clouds: sky clear below 12,000 feet AGL
Weather: automated observation with no human augmentation;
there may or may not be significant weather present at this time

METAR text: KGYY 140315Z AUTO 00000KT 10SM CLR 20/18 A3004 RMK AO2 T01950179
Conditions at: KGYY (GARY REGIONAL , IN, US) observed 0315 UTC 14 August 2018
Temperature: 19.5°C (67°F)
Dewpoint: 17.9°C (64°F) [RH = 90%]
Pressure (altimeter): 30.04 inches Hg (1017.4 mb)
Winds: calm
Visibility: 10 or more miles (16+ km)
Ceiling: at least 12,000 feet AGL
Clouds: sky clear below 12,000 feet AGL
Weather: automated observation with no human augmentation;
there may or may not be significant weather present at this time

METAR text: KGYY 140245Z 00000KT 10SM SKC 20/18 A3004
Conditions at: KGYY (GARY REGIONAL , IN, US) observed 0245 UTC 14 August 2018
Temperature: 20.0°C (68°F)
Dewpoint: 18.0°C (64°F) [RH = 88%]
Pressure (altimeter): 30.04 inches Hg (1017.4 mb)
Winds: calm
Visibility: 10 or more miles (16+ km)
Ceiling: at least 12,000 feet AGL
Clouds: clear skies
Weather: no significant weather observed at this time

METAR text: KGYY 140145Z 13004KT 10SM SKC 21/18 A3003
Conditions at: KGYY (GARY REGIONAL , IN, US) observed 0145 UTC 14 August 2018
Temperature: 21.0°C (70°F)
Dewpoint: 18.0°C (64°F) [RH = 83%]
Pressure (altimeter): 30.03 inches Hg (1017.0 mb)
Winds: from the SE (130 degrees) at 5 MPH (4 knots; 2.1 m/s)
Visibility: 10 or more miles (16+ km)
Ceiling: at least 12,000 feet AGL
Clouds: clear skies
Weather: no significant weather observed at this time